Time;durP1;ratioP1;P1;durP2;ratioP2;P2;SDS_P1;SDS_P2;PMS_P1;PMS_P2;Temp;Humidity;BMP_temperature;BMP_pressure;BME280_temperature;BME280_humidity;BME280_pressure;Samples;Min_cycle;Max_cycle;Signal;HPM_P1;HPM_P2
2023/02/11 00:01:37;;;;;;;36.20;19.10;;;1.50;99.90;;;;;;5013762;28;20018;-67
2023/02/11 00:04:04;;;;;;;37.57;19.07;;;1.40;99.90;;;;;;5013447;28;20050;-67
2023/02/11 00:06:32;;;;;;;36.50;18.88;;;1.50;99.90;;;;;;5013530;28;20014;-67
2023/02/11 00:08:58;;;;;;;40.10;18.90;;;1.50;99.90;;;;;;5013284;28;20053;-67
2023/02/11 00:11:29;;;;;;;38.67;19.17;;;1.50;99.90;;;;;;5013640;28;20026;-67
2023/02/11 00:13:55;;;;;;;36.05;18.42;;;1.60;99.90;;;;;;5011193;28;20040;-67
2023/02/11 00:16:20;;;;;;;35.85;18.40;;;1.50;99.90;;;;;;4993864;28;20042;-67
2023/02/11 00:18:46;;;;;;;35.53;18.37;;;1.60;99.90;;;;;;4977866;28;20423;-66
2023/02/11 00:21:15;;;;;;;34.13;17.92;;;1.60;99.90;;;;;;5016219;28;20435;-67
2023/02/11 00:23:41;;;;;;;34.25;17.35;;;1.70;99.90;;;;;;5033082;28;20382;-67
2023/02/11 00:26:22;;;;;;;39.55;19.50;;;1.60;99.90;;;;;;5013617;28;20099;-67
2023/02/11 00:28:49;;;;;;;44.80;20.48;;;1.60;99.90;;;;;;5012988;28;20033;-67
2023/02/11 00:31:16;;;;;;;34.25;17.73;;;1.50;99.90;;;;;;4976636;28;20215;-68
2023/02/11 00:33:42;;;;;;;38.13;18.25;;;1.60;99.90;;;;;;4976204;28;20086;-67
2023/02/11 00:36:12;;;;;;;38.72;18.75;;;1.60;99.90;;;;;;5029855;28;20444;-67
2023/02/11 00:38:37;;;;;;;33.70;17.88;;;1.50;99.90;;;;;;5032569;28;20108;-67
2023/02/11 00:41:03;;;;;;;38.43;19.60;;;1.60;99.90;;;;;;4997319;28;20163;-67
2023/02/11 00:43:29;;;;;;;39.72;19.75;;;1.50;99.90;;;;;;5012826;28;20052;-67
2023/02/11 00:45:54;;;;;;;35.37;19.60;;;1.50;99.90;;;;;;5028637;28;20037;-67
2023/02/11 00:48:20;;;;;;;38.03;19.43;;;1.50;99.90;;;;;;5014951;28;20028;-67
2023/02/11 00:50:46;;;;;;;35.90;17.50;;;1.60;99.90;;;;;;5020214;28;20076;-67
2023/02/11 00:53:11;;;;;;;40.70;18.53;;;1.70;99.90;;;;;;4995193;28;20061;-67
2023/02/11 00:55:37;;;;;;;37.97;17.47;;;1.70;99.90;;;;;;4994620;28;20026;-67
2023/02/11 00:58:02;;;;;;;36.33;19.47;;;1.70;99.90;;;;;;5013079;28;20083;-67
2023/02/11 01:00:28;;;;;;;36.10;17.93;;;1.60;99.90;;;;;;5012487;28;20030;-67
2023/02/11 01:02:53;;;;;;;37.80;19.33;;;1.70;99.90;;;;;;5012967;28;20057;-67
2023/02/11 01:05:19;;;;;;;35.67;17.38;;;1.70;99.90;;;;;;5012334;28;20036;-66
2023/02/11 01:07:45;;;;;;;35.67;17.92;;;1.60;99.90;;;;;;5012451;28;20030;-66
2023/02/11 01:10:11;;;;;;;35.03;18.63;;;1.60;99.90;;;;;;5012891;28;20030;-66
2023/02/11 01:12:37;;;;;;;32.67;17.13;;;1.70;99.90;;;;;;4995110;28;20041;-66
2023/02/11 01:15:06;;;;;;;34.60;16.73;;;1.70;99.90;;;;;;4994919;28;20038;-67
2023/02/11 01:17:33;;;;;;;35.53;18.35;;;1.80;99.90;;;;;;5013405;28;20399;-66
2023/02/11 01:19:58;;;;;;;30.92;16.67;;;1.80;99.90;;;;;;4994143;28;20022;-68
2023/02/11 01:22:24;;;;;;;35.80;16.97;;;1.80;99.90;;;;;;4995561;28;20025;-67
2023/02/11 01:24:49;;;;;;;35.67;17.33;;;1.90;99.90;;;;;;5012879;28;20533;-66
2023/02/11 01:27:15;;;;;;;38.03;18.23;;;1.90;99.90;;;;;;5013582;28;20470;-66
2023/02/11 01:29:40;;;;;;;40.53;19.20;;;1.80;99.90;;;;;;5013022;28;20026;-66
2023/02/11 01:32:06;;;;;;;36.37;18.03;;;1.90;99.90;;;;;;5013965;28;20352;-66
2023/02/11 01:34:31;;;;;;;35.27;17.63;;;1.90;99.90;;;;;;5012876;28;20395;-65
2023/02/11 01:37:00;;;;;;;35.17;17.93;;;1.90;99.90;;;;;;5012808;28;20038;-67
2023/02/11 01:39:26;;;;;;;35.40;18.48;;;1.90;99.90;;;;;;5013159;28;20448;-66
2023/02/11 01:41:52;;;;;;;44.03;19.35;;;1.90;99.90;;;;;;5015567;28;20459;-65
2023/02/11 01:44:32;;;;;;;38.40;18.63;;;2.00;99.90;;;;;;4998656;28;20316;-67
2023/02/11 01:46:57;;;;;;;32.63;17.48;;;2.10;99.90;;;;;;5015692;28;20053;-67
2023/02/11 01:49:31;;;;;;;35.70;19.37;;;2.00;99.90;;;;;;4998961;28;20026;-66
2023/02/11 01:52:08;;;;;;;34.85;18.25;;;2.10;99.90;;;;;;5016103;28;20309;-67
2023/02/11 01:57:28;;;;;;;37.35;18.75;;;2.10;99.90;;;;;;5016235;28;20037;-67
2023/02/11 01:59:59;;;;;;;35.28;18.88;;;2.00;99.90;;;;;;5016120;28;20018;-67
2023/02/11 02:02:49;;;;;;;35.78;19.90;;;2.00;99.90;;;;;;5015752;28;20124;-68
2023/02/11 02:05:39;;;;;;;38.65;18.30;;;2.10;99.90;;;;;;4997656;28;20143;-67
2023/02/11 02:08:20;;;;;;;41.08;19.27;;;1.90;99.90;;;;;;5016263;28;20040;-67
2023/02/11 02:10:52;;;;;;;33.95;18.60;;;1.90;99.90;;;;;;5015153;28;20052;-68
2023/02/11 02:13:19;;;;;;;34.40;18.40;;;1.90;99.90;;;;;;5015836;28;20044;-67
2023/02/11 02:15:50;;;;;;;37.17;19.10;;;2.00;99.90;;;;;;5014781;28;20462;-67
2023/02/11 02:18:45;;;;;;;38.95;19.13;;;2.00;99.90;;;;;;4997881;28;20032;-67
2023/02/11 02:21:30;;;;;;;36.42;18.55;;;1.90;99.90;;;;;;4992964;28;20100;-67
2023/02/11 02:24:33;;;;;;;34.45;17.35;;;1.90;99.90;;;;;;5015608;28;20060;-66
2023/02/11 02:27:34;;;;;;;39.95;18.10;;;1.90;99.90;;;;;;5014444;28;20109;-67
2023/02/11 02:30:35;;;;;;;33.95;18.08;;;1.70;99.90;;;;;;5015084;28;20474;-67
2023/02/11 02:33:23;;;;;;;28.58;16.35;;;1.60;99.90;;;;;;4995533;28;20049;-67
2023/02/11 02:36:02;;;;;;;34.00;17.35;;;1.50;99.90;;;;;;5000487;28;20030;-66
2023/02/11 02:38:49;;;;;;;32.88;17.17;;;1.60;99.90;;;;;;5015813;28;20026;-66
2023/02/11 02:41:18;;;;;;;33.60;17.85;;;1.80;99.90;;;;;;5014966;28;20478;-66
2023/02/11 02:43:47;;;;;;;40.40;18.20;;;1.70;99.90;;;;;;5015351;28;20030;-66
2023/02/11 02:46:16;;;;;;;37.28;18.80;;;1.80;99.90;;;;;;4996895;28;20450;-66
2023/02/11 02:48:42;;;;;;;33.60;18.35;;;1.90;99.90;;;;;;5015296;28;20033;-67
2023/02/11 02:51:42;;;;;;;37.47;18.13;;;1.80;99.90;;;;;;4996446;28;20434;-66
2023/02/11 02:54:41;;;;;;;35.22;18.10;;;1.90;99.90;;;;;;5014765;28;20026;-66
2023/02/11 02:57:27;;;;;;;38.58;18.27;;;1.70;99.90;;;;;;5015159;28;20037;-67
2023/02/11 03:00:08;;;;;;;38.88;18.52;;;1.70;99.90;;;;;;5015272;28;20449;-66
2023/02/11 03:03:02;;;;;;;31.35;17.40;;;1.60;99.90;;;;;;5015307;28;20040;-66
2023/02/11 03:05:44;;;;;;;29.77;16.95;;;1.60;99.90;;;;;;5014910;28;20024;-66
2023/02/11 03:08:19;;;;;;;34.67;17.75;;;1.70;99.90;;;;;;4998951;28;20083;-66
2023/02/11 03:10:48;;;;;;;34.42;17.67;;;1.60;99.90;;;;;;5017135;28;20088;-66
2023/02/11 03:13:16;;;;;;;33.10;17.88;;;1.70;99.90;;;;;;4997828;28;20032;-66
2023/02/11 03:15:45;;;;;;;35.80;18.40;;;1.70;99.90;;;;;;4996931;28;20044;-66
2023/02/11 03:18:14;;;;;;;35.65;18.45;;;1.80;99.90;;;;;;4996662;28;20104;-66
2023/02/11 03:20:42;;;;;;;33.50;17.75;;;1.80;99.90;;;;;;4996792;28;20425;-66
2023/02/11 03:23:31;;;;;;;34.83;17.05;;;1.80;99.90;;;;;;5014762;28;20024;-66
2023/02/11 03:26:01;;;;;;;32.83;16.58;;;1.70;99.90;;;;;;4996536;28;20022;-66
2023/02/11 03:28:33;;;;;;;31.02;17.25;;;1.80;99.90;;;;;;5014331;28;20025;-66
2023/02/11 03:31:27;;;;;;;35.20;17.85;;;1.80;99.90;;;;;;4996566;28;20374;-65
2023/02/11 03:34:13;;;;;;;33.80;17.38;;;1.80;99.90;;;;;;5015131;28;20374;-66
2023/02/11 03:36:47;;;;;;;33.47;17.95;;;1.70;99.90;;;;;;4996621;28;20030;-66
2023/02/11 03:39:22;;;;;;;32.92;17.30;;;1.80;99.90;;;;;;5014459;28;20386;-66
2023/02/11 03:41:50;;;;;;;34.80;18.83;;;1.90;99.90;;;;;;5014431;28;20026;-66
2023/02/11 03:44:17;;;;;;;35.70;19.08;;;1.80;99.90;;;;;;4996394;28;20026;-66
2023/02/11 03:46:51;;;;;;;34.15;18.63;;;1.80;99.90;;;;;;5013842;28;20041;-66
2023/02/11 03:49:20;;;;;;;36.92;19.10;;;1.70;99.90;;;;;;5014255;28;20026;-66
2023/02/11 03:51:49;;;;;;;37.30;19.05;;;1.70;99.90;;;;;;5014140;28;20021;-66
2023/02/11 03:54:22;;;;;;;40.00;18.55;;;1.50;99.90;;;;;;5013890;28;20064;-66
2023/02/11 03:56:54;;;;;;;37.67;18.45;;;1.60;99.90;;;;;;5012765;28;20401;-65
2023/02/11 03:59:19;;;;;;;36.42;17.83;;;1.70;99.90;;;;;;5013931;28;20034;-65
2023/02/11 04:01:45;;;;;;;34.67;18.10;;;1.70;99.90;;;;;;5013707;28;20029;-66
2023/02/11 04:04:11;;;;;;;33.20;18.10;;;1.70;99.90;;;;;;5013389;28;20077;-66
2023/02/11 04:06:36;;;;;;;36.22;18.85;;;1.70;99.90;;;;;;4996162;28;20390;-66
2023/02/11 04:09:03;;;;;;;34.73;18.80;;;1.70;99.90;;;;;;5013442;28;20037;-66
2023/02/11 04:11:28;;;;;;;33.92;17.27;;;1.60;99.90;;;;;;5014422;28;20116;-66
2023/02/11 04:13:54;;;;;;;35.60;16.97;;;1.70;99.90;;;;;;5013626;28;20076;-66
2023/02/11 04:16:19;;;;;;;32.97;17.27;;;1.90;99.90;;;;;;5013637;28;20073;-67
2023/02/11 04:18:45;;;;;;;31.30;16.53;;;1.80;99.90;;;;;;4995981;28;20055;-67
2023/02/11 04:21:10;;;;;;;35.63;17.03;;;1.90;99.90;;;;;;5012967;28;20117;-66
2023/02/11 04:23:36;;;;;;;36.23;17.33;;;1.80;99.90;;;;;;5013450;28;20101;-66
2023/02/11 04:26:02;;;;;;;32.33;16.73;;;1.80;99.90;;;;;;5013090;28;20104;-68
2023/02/11 04:28:28;;;;;;;31.73;15.90;;;1.70;99.90;;;;;;5014165;28;20026;-67
2023/02/11 04:30:55;;;;;;;27.05;15.43;;;1.70;99.90;;;;;;4995647;28;20030;-66
2023/02/11 04:33:21;;;;;;;27.88;15.10;;;1.80;99.90;;;;;;4995758;28;20034;-66
2023/02/11 04:35:46;;;;;;;27.55;15.98;;;1.80;99.90;;;;;;5013253;28;20045;-66
2023/02/11 04:38:12;;;;;;;31.20;15.37;;;1.80;99.90;;;;;;4995956;28;20029;-66
2023/02/11 04:40:38;;;;;;;26.85;14.73;;;1.90;99.90;;;;;;5013818;28;20061;-66
2023/02/11 04:43:04;;;;;;;28.27;16.20;;;2.00;99.90;;;;;;5013370;28;20073;-66
2023/02/11 04:45:29;;;;;;;34.30;16.85;;;1.90;99.90;;;;;;5012973;28;20117;-66
2023/02/11 04:47:55;;;;;;;30.23;16.00;;;2.00;99.90;;;;;;5013493;28;20368;-66
2023/02/11 04:50:20;;;;;;;32.23;16.60;;;2.00;99.90;;;;;;4995577;28;20432;-66
2023/02/11 04:52:46;;;;;;;31.53;16.53;;;1.90;99.90;;;;;;5012785;28;20069;-66
2023/02/11 04:55:11;;;;;;;29.10;16.03;;;1.90;99.90;;;;;;5012936;28;20030;-66
2023/02/11 04:57:37;;;;;;;31.73;17.07;;;1.80;99.90;;;;;;5013384;28;20025;-66
2023/02/11 05:00:04;;;;;;;40.43;18.27;;;1.80;99.90;;;;;;5012748;28;20069;-66
2023/02/11 05:02:30;;;;;;;31.15;16.02;;;1.80;99.90;;;;;;5012926;28;20067;-66
2023/02/11 05:04:55;;;;;;;28.83;16.30;;;1.80;99.90;;;;;;5013014;28;20116;-66
2023/02/11 05:07:21;;;;;;;32.23;16.17;;;1.80;99.90;;;;;;5013116;28;20021;-66
2023/02/11 05:09:46;;;;;;;29.27;15.00;;;1.70;99.90;;;;;;5016244;28;20018;-65
2023/02/11 05:12:12;;;;;;;28.60;15.70;;;1.80;99.90;;;;;;5032543;28;20502;-65
2023/02/11 05:14:37;;;;;;;30.73;14.80;;;1.80;99.90;;;;;;5032234;28;20109;-65
2023/02/11 05:17:03;;;;;;;31.07;16.10;;;1.80;99.90;;;;;;5019516;28;20112;-65
2023/02/11 05:19:30;;;;;;;27.13;15.03;;;1.80;99.90;;;;;;5036875;28;20470;-66
2023/02/11 05:21:56;;;;;;;30.67;14.85;;;1.80;99.90;;;;;;5036712;28;20083;-65
2023/02/11 05:24:21;;;;;;;25.20;13.53;;;1.80;99.90;;;;;;5037269;28;20359;-66
2023/02/11 05:26:47;;;;;;;27.40;14.50;;;1.80;99.90;;;;;;5036367;28;20533;-67
2023/02/11 05:29:13;;;;;;;27.93;14.37;;;1.70;99.90;;;;;;5036265;28;20025;-65
2023/02/11 05:31:38;;;;;;;29.50;15.53;;;1.80;99.90;;;;;;5017298;28;20054;-67
2023/02/11 05:34:04;;;;;;;31.20;14.90;;;1.80;99.90;;;;;;5016728;28;20033;-67
2023/02/11 05:36:29;;;;;;;27.50;14.50;;;1.90;99.90;;;;;;5016566;28;20072;-68
2023/02/11 05:38:55;;;;;;;30.50;15.57;;;1.80;99.90;;;;;;5016703;28;20025;-67
2023/02/11 05:41:20;;;;;;;31.07;15.37;;;1.80;99.90;;;;;;5016450;28;20037;-67
2023/02/11 05:43:52;;;;;;;32.73;16.17;;;1.80;99.90;;;;;;5016583;28;20132;-67
2023/02/11 05:46:18;;;;;;;29.83;15.60;;;1.90;99.90;;;;;;5015444;28;20132;-66
2023/02/11 05:48:44;;;;;;;27.90;15.13;;;1.80;99.90;;;;;;5016433;28;20054;-67
2023/02/11 05:51:09;;;;;;;28.73;15.17;;;1.80;99.90;;;;;;4998611;28;20097;-67
2023/02/11 05:53:35;;;;;;;28.90;16.40;;;1.90;99.90;;;;;;5015623;28;20026;-67
2023/02/11 05:56:01;;;;;;;29.67;16.07;;;1.80;99.90;;;;;;5016225;28;20111;-66
2023/02/11 05:58:26;;;;;;;30.30;15.15;;;1.70;99.90;;;;;;5016162;28;20105;-65
2023/02/11 06:00:52;;;;;;;32.67;16.17;;;1.70;99.90;;;;;;4998699;28;20026;-67
2023/02/11 06:03:18;;;;;;;29.23;15.57;;;1.60;99.90;;;;;;5016209;28;20088;-66
2023/02/11 06:05:44;;;;;;;29.85;16.33;;;1.60;99.90;;;;;;5016442;28;20026;-66
2023/02/11 06:08:10;;;;;;;27.65;16.15;;;1.60;99.90;;;;;;5015973;28;20417;-65
2023/02/11 06:10:35;;;;;;;30.30;16.37;;;1.60;99.90;;;;;;5015715;28;20088;-67
2023/02/11 06:13:01;;;;;;;34.40;16.40;;;1.60;99.90;;;;;;5015765;28;20386;-67
2023/02/11 06:15:27;;;;;;;36.40;17.40;;;1.60;99.90;;;;;;5015702;28;20042;-66
2023/02/11 06:17:52;;;;;;;34.40;18.23;;;1.60;99.90;;;;;;5007619;28;20037;-67
2023/02/11 06:20:18;;;;;;;34.53;18.50;;;1.50;99.90;;;;;;5035344;28;20057;-66
2023/02/11 06:22:44;;;;;;;38.83;18.87;;;1.50;99.90;;;;;;5028245;28;20467;-65
2023/02/11 06:25:10;;;;;;;35.27;18.67;;;1.50;99.90;;;;;;4998176;28;20265;-67
2023/02/11 06:27:37;;;;;;;36.42;19.60;;;1.50;99.90;;;;;;5015970;28;20022;-66
2023/02/11 06:30:04;;;;;;;37.03;18.67;;;1.50;99.90;;;;;;5016608;28;20109;-66
2023/02/11 06:32:29;;;;;;;39.85;19.92;;;1.40;99.90;;;;;;4998374;28;20491;-65
2023/02/11 06:34:55;;;;;;;41.40;20.63;;;1.40;99.90;;;;;;5016600;28;20034;-66
2023/02/11 06:37:21;;;;;;;40.40;20.30;;;1.30;99.90;;;;;;5015404;28;20040;-65
2023/02/11 06:39:47;;;;;;;41.95;21.75;;;1.40;99.90;;;;;;4999019;28;20033;-67
2023/02/11 06:42:12;;;;;;;40.53;21.20;;;1.40;99.90;;;;;;5016293;28;20080;-67
2023/02/11 06:44:38;;;;;;;37.90;20.03;;;1.40;99.90;;;;;;5015689;28;20030;-66
2023/02/11 06:47:03;;;;;;;42.20;21.47;;;1.50;99.90;;;;;;5015287;28;20076;-66
2023/02/11 06:49:29;;;;;;;41.65;20.33;;;1.50;99.90;;;;;;5015438;28;20026;-67
2023/02/11 06:51:55;;;;;;;40.90;20.97;;;1.50;99.90;;;;;;5015320;28;20088;-67
2023/02/11 06:54:20;;;;;;;41.77;22.13;;;1.50;99.90;;;;;;5014921;28;20080;-67
2023/02/11 06:56:46;;;;;;;48.27;23.87;;;1.50;99.90;;;;;;5015220;28;20060;-67
2023/02/11 06:59:17;;;;;;;45.23;22.77;;;1.50;99.90;;;;;;5015222;28;20136;-66
2023/02/11 07:01:43;;;;;;;45.13;23.77;;;1.50;99.90;;;;;;4997337;28;20030;-67
2023/02/11 07:04:08;;;;;;;44.85;22.50;;;1.50;99.90;;;;;;5010487;28;20391;-66
2023/02/11 07:06:36;;;;;;;44.90;22.57;;;1.50;99.90;;;;;;4997101;28;20493;-67
2023/02/11 07:09:02;;;;;;;48.05;23.30;;;1.60;99.90;;;;;;4996976;28;20014;-66
2023/02/11 07:11:29;;;;;;;42.95;21.52;;;1.50;99.90;;;;;;5008306;28;20109;-66
2023/02/11 07:13:56;;;;;;;;;;;1.50;99.90;;;;;;5014572;28;20026;-66
2023/02/11 07:16:22;;;;;;;43.57;21.90;;;1.60;99.90;;;;;;4998568;28;19917;-67
2023/02/11 07:18:48;;;;;;;51.17;24.23;;;1.60;99.90;;;;;;4997686;28;20033;-66
2023/02/11 07:21:17;;;;;;;42.60;22.73;;;1.70;99.90;;;;;;4997799;28;20069;-66
2023/02/11 07:23:43;;;;;;;45.50;22.73;;;1.70;99.90;;;;;;5000299;28;20076;-66
2023/02/11 07:26:11;;;;;;;46.83;22.90;;;1.80;99.90;;;;;;5009828;28;20018;-74
2023/02/11 07:28:38;;;;;;;43.95;23.83;;;1.80;99.90;;;;;;5016789;28;20053;-74
2023/02/11 07:31:09;;;;;;;46.95;23.00;;;1.80;99.90;;;;;;5036876;28;20083;-74
2023/02/11 07:33:35;;;;;;;46.17;24.90;;;1.90;99.90;;;;;;5020487;28;20045;-75
2023/02/11 07:36:04;;;;;;;45.72;23.75;;;1.90;99.90;;;;;;5018648;28;20116;-74
2023/02/11 07:38:31;;;;;;;48.00;24.30;;;2.00;99.90;;;;;;4998336;28;20029;-74
2023/02/11 07:41:05;;;;;;;43.88;23.52;;;2.00;99.90;;;;;;4999738;28;20116;-75
2023/02/11 07:43:31;;;;;;;42.72;24.00;;;2.00;99.90;;;;;;5000706;28;20680;-67
2023/02/11 07:45:57;;;;;;;48.33;24.95;;;2.10;99.90;;;;;;5034696;28;20342;-68
2023/02/11 07:48:23;;;;;;;52.20;25.63;;;2.10;99.90;;;;;;5036012;28;20022;-68
2023/02/11 07:50:49;;;;;;;48.63;24.95;;;2.00;99.90;;;;;;5035527;28;20029;-67
2023/02/11 07:53:15;;;;;;;47.67;24.80;;;2.00;99.90;;;;;;5036462;28;20061;-68
2023/02/11 07:55:42;;;;;;;51.70;26.10;;;2.10;99.90;;;;;;5036127;28;20508;-68
2023/02/11 07:58:08;;;;;;;63.45;26.48;;;2.10;99.90;;;;;;5032865;28;20041;-68
2023/02/11 08:00:33;;;;;;;47.05;25.10;;;1.90;99.90;;;;;;5015793;28;20344;-68
2023/02/11 08:02:59;;;;;;;46.17;24.17;;;2.00;99.90;;;;;;5014429;28;20497;-68
2023/02/11 08:05:24;;;;;;;53.07;25.53;;;2.00;99.90;;;;;;5014542;28;20029;-68
2023/02/11 08:07:52;;;;;;;53.43;25.60;;;2.00;99.90;;;;;;5014294;28;20024;-69
2023/02/11 08:10:18;;;;;;;50.65;25.65;;;2.00;99.90;;;;;;5016128;28;20026;-69
2023/02/11 08:12:43;;;;;;;51.60;25.67;;;1.90;99.90;;;;;;5015668;28;20426;-69
2023/02/11 08:15:09;;;;;;;50.60;26.17;;;1.80;99.90;;;;;;5015055;28;20120;-69
2023/02/11 08:17:35;;;;;;;50.47;26.08;;;1.80;99.90;;;;;;5014963;28;20034;-69
2023/02/11 08:20:02;;;;;;;49.13;26.88;;;2.00;99.90;;;;;;4997026;28;20041;-69
2023/02/11 08:22:30;;;;;;;;;;;2.00;99.90;;;;;;4996406;28;20042;-68
2023/02/11 08:24:57;;;;;;;;;;;2.00;99.90;;;;;;4996640;28;19906;-68
2023/02/11 08:27:23;;;;;;;49.67;24.38;;;1.90;99.90;;;;;;5014686;28;19952;-68
2023/02/11 08:29:48;;;;;;;47.83;25.73;;;1.90;99.90;;;;;;5013795;28;20057;-68
2023/02/11 08:32:14;;;;;;;48.60;25.40;;;1.80;99.90;;;;;;5014769;28;20322;-70
2023/02/11 08:34:39;;;;;;;49.27;25.37;;;1.80;99.90;;;;;;5015422;28;20160;-69
2023/02/11 08:37:05;;;;;;;50.70;26.23;;;1.80;99.90;;;;;;5015477;28;20033;-69
2023/02/11 08:39:30;;;;;;;48.23;25.93;;;1.90;99.90;;;;;;5019148;28;20041;-68
2023/02/11 08:41:56;;;;;;;51.00;24.73;;;2.00;99.90;;;;;;5018442;28;20022;-68
2023/02/11 08:44:23;;;;;;;47.70;23.97;;;2.10;99.90;;;;;;5014899;28;20038;-67
2023/02/11 08:46:49;;;;;;;47.35;23.67;;;2.20;99.90;;;;;;5017298;28;20053;-69
2023/02/11 08:49:15;;;;;;;42.28;23.52;;;2.30;99.90;;;;;;5016267;28;20026;-67
2023/02/11 08:51:41;;;;;;;44.78;24.83;;;2.40;99.90;;;;;;4998692;28;20367;-74
2023/02/11 08:54:08;;;;;;;46.28;24.20;;;2.50;99.90;;;;;;5019031;28;20034;-74
2023/02/11 08:56:35;;;;;;;45.67;24.23;;;2.60;99.90;;;;;;5002287;28;20052;-73
2023/02/11 08:59:01;;;;;;;47.40;24.30;;;2.60;99.90;;;;;;4999813;28;20116;-73
2023/02/11 09:01:29;;;;;;;47.08;24.73;;;2.60;99.90;;;;;;5019372;28;20043;-67
2023/02/11 09:03:56;;;;;;;46.58;24.80;;;2.70;99.90;;;;;;5018751;28;20045;-67
2023/02/11 09:06:22;;;;;;;43.88;23.48;;;2.80;99.90;;;;;;5019068;28;20041;-68
2023/02/11 09:08:48;;;;;;;;;;;2.80;99.90;;;;;;5018951;28;20038;-68
2023/02/11 09:11:16;;;;;;;47.20;24.90;;;2.70;99.90;;;;;;5001464;28;19906;-67
2023/02/11 09:13:42;;;;;;;50.13;24.10;;;2.80;99.90;;;;;;5018151;28;20030;-68
2023/02/11 09:16:19;;;;;;;46.22;23.48;;;2.80;99.90;;;;;;4997640;28;20033;-67
2023/02/11 09:18:45;;;;;;;46.17;25.05;;;2.70;99.90;;;;;;4999565;28;20077;-75
2023/02/11 09:21:12;;;;;;;46.33;24.42;;;2.60;99.90;;;;;;5015731;28;20030;-67
2023/02/11 09:23:40;;;;;;;;;;;2.70;99.90;;;;;;5005209;28;20044;-68
2023/02/11 09:26:08;;;;;;;53.53;24.00;;;2.80;99.90;;;;;;5040055;28;19909;-67
2023/02/11 09:28:33;;;;;;;45.17;25.08;;;3.00;99.90;;;;;;5035615;28;20053;-67
2023/02/11 09:31:04;;;;;;;43.65;23.50;;;3.10;99.90;;;;;;5001683;28;20033;-67
2023/02/11 09:33:30;;;;;;;45.45;24.60;;;3.20;99.90;;;;;;5019284;28;20076;-67
2023/02/11 09:35:58;;;;;;;44.00;23.00;;;3.30;99.90;;;;;;5019187;28;20036;-66
2023/02/11 09:38:24;;;;;;;45.08;24.45;;;3.40;99.90;;;;;;5018881;28;20144;-71
2023/02/11 09:40:49;;;;;;;44.73;23.27;;;3.60;99.90;;;;;;5002009;28;20526;-76
2023/02/11 09:43:42;;;;;;;42.73;23.60;;;3.70;99.90;;;;;;5001224;28;20366;-67
2023/02/11 09:46:13;;;;;;;42.95;22.70;;;4.40;99.90;;;;;;5015623;28;20069;-73
2023/02/11 09:48:42;;;;;;;39.45;21.35;;;5.50;99.90;;;;;;4996508;28;20025;-76
2023/02/11 09:51:19;;;;;;;41.88;22.45;;;6.80;99.90;;;;;;5015120;28;20040;-75
2023/02/11 09:53:47;;;;;;;41.80;22.63;;;8.50;99.90;;;;;;5015241;28;20029;-74
2023/02/11 09:56:14;;;;;;;40.20;22.02;;;9.90;97.90;;;;;;5032273;28;20053;-74
2023/02/11 09:58:42;;;;;;;38.78;21.50;;;10.30;95.80;;;;;;5032659;28;20025;-74
2023/02/11 10:01:25;;;;;;;38.08;20.85;;;9.80;95.30;;;;;;4995312;28;20109;-72
2023/02/11 10:03:54;;;;;;;38.15;20.00;;;9.50;95.80;;;;;;4999432;28;20048;-74
2023/02/11 10:06:31;;;;;;;35.83;20.67;;;8.50;96.70;;;;;;4998767;28;20022;-74
2023/02/11 10:09:33;;;;;;;40.67;21.77;;;7.80;98.00;;;;;;4998631;28;20026;-72
2023/02/11 10:12:09;;;;;;;40.10;21.30;;;7.40;98.90;;;;;;4998805;28;20022;-70
2023/02/11 10:15:12;;;;;;;40.60;22.30;;;7.00;99.80;;;;;;4997249;28;20033;-70
2023/02/11 10:18:15;;;;;;;44.38;23.00;;;6.70;99.90;;;;;;5016240;28;20060;-74
2023/02/11 10:20:48;;;;;;;37.85;21.80;;;6.40;99.90;;;;;;5001565;28;20388;-72
2023/02/11 10:23:33;;;;;;;42.90;22.80;;;6.40;99.90;;;;;;4979189;28;20026;-74
2023/02/11 10:25:59;;;;;;;37.83;21.90;;;6.70;99.90;;;;;;4979614;28;20067;-75
2023/02/11 10:28:31;;;;;;;40.40;22.90;;;7.30;99.90;;;;;;4983201;28;20033;-75
2023/02/11 10:31:04;;;;;;;40.22;21.88;;;7.30;99.90;;;;;;5013325;28;20483;-74
2023/02/11 10:33:38;;;;;;;36.30;21.80;;;7.00;99.90;;;;;;4996311;28;20046;-71
2023/02/11 10:36:04;;;;;;;38.15;20.77;;;7.00;99.90;;;;;;5013024;28;20022;-72
2023/02/11 10:38:31;;;;;;;39.33;20.92;;;6.70;99.90;;;;;;4995818;28;20514;-71
2023/02/11 10:40:57;;;;;;;36.03;20.17;;;6.60;99.90;;;;;;5013257;28;20308;-74
2023/02/11 10:43:26;;;;;;;33.37;18.33;;;6.80;99.90;;;;;;4997459;28;20033;-75
2023/02/11 10:45:54;;;;;;;33.65;18.88;;;7.60;99.90;;;;;;4997193;28;20030;-73
2023/02/11 10:48:39;;;;;;;34.53;19.10;;;7.80;99.90;;;;;;4998127;28;20060;-73
2023/02/11 10:51:11;;;;;;;37.90;19.40;;;8.70;98.70;;;;;;4997412;28;20034;-77
2023/02/11 10:53:37;;;;;;;35.03;18.38;;;9.20;97.70;;;;;;5015289;28;20101;-74
2023/02/11 10:56:04;;;;;;;28.83;16.85;;;9.80;96.80;;;;;;5014567;28;20057;-73
2023/02/11 10:58:39;;;;;;;30.83;17.60;;;10.20;95.60;;;;;;5015773;28;20034;-79
2023/02/11 11:01:06;;;;;;;31.85;17.10;;;10.10;95.70;;;;;;4997714;28;20026;-72
2023/02/11 11:03:38;;;;;;;27.77;16.70;;;10.60;95.10;;;;;;4997441;28;20095;-73
2023/02/11 11:06:10;;;;;;;28.77;16.25;;;11.10;94.20;;;;;;5013874;28;20084;-74
2023/02/11 11:08:44;;;;;;;26.77;16.60;;;11.70;93.50;;;;;;4998291;28;20033;-75
2023/02/11 11:11:13;;;;;;;31.30;15.55;;;12.40;92.40;;;;;;4997598;28;20034;-73
2023/02/11 11:13:52;;;;;;;24.00;15.13;;;12.70;91.00;;;;;;4996309;28;20517;-76
2023/02/11 11:16:29;;;;;;;27.00;15.88;;;12.10;90.80;;;;;;4982767;28;20093;-74
2023/02/11 11:19:07;;;;;;;23.33;14.10;;;12.10;90.90;;;;;;4995693;28;20026;-75
2023/02/11 11:21:43;;;;;;;26.25;15.20;;;10.90;91.90;;;;;;4996315;28;20026;-74
2023/02/11 11:24:33;;;;;;;25.20;14.83;;;9.90;93.50;;;;;;4979060;28;20092;-74
2023/02/11 11:27:01;;;;;;;24.33;14.00;;;8.80;95.20;;;;;;4995166;28;20529;-68
2023/02/11 11:29:36;;;;;;;25.35;14.43;;;8.40;96.40;;;;;;4996403;28;20030;-73
2023/02/11 11:32:10;;;;;;;26.08;14.10;;;8.20;96.90;;;;;;4977597;28;20427;-73
2023/02/11 11:34:39;;;;;;;27.35;14.07;;;8.10;97.40;;;;;;4995062;28;20322;-74
2023/02/11 11:37:19;;;;;;;25.65;13.73;;;7.90;98.30;;;;;;5003608;28;20019;-72
2023/02/11 11:39:57;;;;;;;24.17;14.27;;;7.70;98.20;;;;;;5012032;28;20459;-72
2023/02/11 11:42:31;;;;;;;24.65;14.80;;;7.60;98.80;;;;;;4995891;28;20049;-72
2023/02/11 11:45:03;;;;;;;26.55;14.52;;;7.50;99.20;;;;;;4997812;28;20030;-72
2023/02/11 11:47:38;;;;;;;28.45;14.98;;;7.60;99.40;;;;;;5025648;28;20048;-71
2023/02/11 11:50:29;;;;;;;29.75;14.85;;;7.60;99.80;;;;;;5034275;28;20108;-73
2023/02/11 11:53:21;;;;;;;23.25;13.63;;;7.80;99.50;;;;;;5034483;28;20040;-75
2023/02/11 11:56:14;;;;;;;25.92;15.35;;;7.80;99.70;;;;;;5024125;28;20040;-73
2023/02/11 11:58:40;;;;;;;29.02;14.85;;;7.90;99.80;;;;;;5014023;28;20045;-73
2023/02/11 12:01:34;;;;;;;27.23;15.30;;;7.80;99.70;;;;;;4996566;28;20030;-74
2023/02/11 12:04:10;;;;;;;25.67;14.15;;;7.80;99.90;;;;;;5009002;28;20025;-68
2023/02/11 12:07:09;;;;;;;27.98;14.73;;;7.70;99.90;;;;;;5006242;28;20148;-63
2023/02/11 12:09:47;;;;;;;23.70;13.57;;;8.00;99.90;;;;;;4992241;28;20049;-63
2023/02/11 12:12:41;;;;;;;23.98;13.55;;;8.00;99.90;;;;;;5005747;28;20026;-63
2023/02/11 12:15:27;;;;;;;24.38;13.85;;;8.20;99.90;;;;;;5011137;28;20034;-66
2023/02/11 12:18:37;;;;;;;25.67;14.40;;;8.20;99.90;;;;;;5011309;28;20022;-68
2023/02/11 12:21:34;;;;;;;33.28;15.65;;;8.40;99.90;;;;;;5011286;28;20088;-65
2023/02/11 12:24:26;;;;;;;28.33;14.73;;;8.50;99.90;;;;;;4951093;28;20039;-69
2023/02/11 12:27:24;;;;;;;25.95;14.77;;;8.60;99.90;;;;;;4951900;29;20031;-66
2023/02/11 12:30:27;;;;;;;26.42;14.93;;;8.60;99.90;;;;;;4934024;29;20032;-65
2023/02/11 12:33:04;;;;;;;25.77;14.30;;;8.70;99.90;;;;;;4953021;29;20042;-64
2023/02/11 12:35:41;;;;;;;25.27;14.48;;;8.60;99.90;;;;;;4952150;28;20498;-64
2023/02/11 12:38:40;;;;;;;27.25;14.65;;;8.70;99.90;;;;;;4933933;29;20115;-64
2023/02/11 12:41:16;;;;;;;28.80;16.33;;;8.80;99.90;;;;;;4937723;28;20166;-64
2023/02/11 12:43:43;;;;;;;28.25;15.68;;;8.90;99.90;;;;;;4952711;29;20023;-64
2023/02/11 12:46:42;;;;;;;25.23;15.80;;;9.00;99.90;;;;;;4952251;28;20027;-64
2023/02/11 12:49:17;;;;;;;31.00;15.85;;;9.10;99.90;;;;;;4952829;29;20368;-64
2023/02/11 12:52:00;;;;;;;24.40;14.32;;;9.20;99.90;;;;;;4951648;28;20024;-64
2023/02/11 12:54:37;;;;;;;27.42;15.05;;;9.20;99.90;;;;;;4936598;29;20554;-69
2023/02/11 12:57:21;;;;;;;26.38;14.48;;;9.10;99.90;;;;;;4951866;28;20031;-65
2023/02/11 13:00:06;;;;;;;25.45;15.07;;;9.00;99.90;;;;;;4957431;28;20455;-65
2023/02/11 13:02:59;;;;;;;23.30;13.45;;;8.90;99.90;;;;;;5007795;28;20479;-64